Terminal Aerodrome Forecast
Issued by NWS

Home | Current Version | Previous Version | Text Only | Print | Product List | Glossary Off
Versions: 1 2 3 4 5 6 7 8 9 10 11 12 13 14 15

899
FTUS43 KUNR 151720
TAFGCC
TAF
KGCC 151720Z 1518/1618 30016KT P6SM SKC
     FM160100 24011KT P6SM SKC=

USA.gov is the U.S. government's official web portal to all federal, state and local government web resources and services.